Time;durP1;ratioP1;P1;durP2;ratioP2;P2;SDS_P1;SDS_P2;PMS_P1;PMS_P2;Temp;Humidity;BMP_temperature;BMP_pressure;BME280_temperature;BME280_humidity;BME280_pressure;Samples;Min_cycle;Max_cycle;Signal;HPM_P1;HPM_P2
2022/09/20 00:01:12;;;;;;;2.33;1.58;;;;;;;17.78;40.58;99374.16;5073322;28;20075;-79
2022/09/20 00:03:40;;;;;;;3.88;1.90;;;;;;;18.19;40.77;99441.97;5073673;28;20021;-78
2022/09/20 00:06:07;;;;;;;1.90;1.58;;;;;;;18.06;40.80;99432.31;5073673;28;20103;-78
2022/09/20 00:08:33;;;;;;;4.80;1.48;;;;;;;17.45;40.82;99339.09;5073584;28;20549;-79
2022/09/20 00:11:09;;;;;;;3.30;1.83;;;;;;;17.77;40.96;99398.41;5073300;28;20028;-79
2022/09/20 00:13:36;;;;;;;2.50;1.55;;;;;;;17.99;41.31;99460.16;5073112;28;20058;-78
2022/09/20 00:16:10;;;;;;;3.35;1.63;;;;;;;17.95;41.17;99437.63;5073288;28;20052;-79
2022/09/20 00:18:37;;;;;;;2.00;1.50;;;;;;;17.63;41.36;99394.28;5073124;28;20028;-79
2022/09/20 00:21:03;;;;;;;3.60;1.60;;;;;;;18.00;41.27;99454.59;5073012;28;20493;-78
2022/09/20 00:23:29;;;;;;;3.42;1.50;;;;;;;17.62;41.37;99371.28;5073223;28;20092;-78
2022/09/20 00:26:00;;;;;;;2.92;1.65;;;;;;;18.02;41.35;99430.31;5073219;28;20028;-78
2022/09/20 00:28:27;;;;;;;3.20;1.88;;;;;;;17.64;41.49;99386.03;5073199;28;20142;-79
2022/09/20 00:30:54;;;;;;;3.53;2.00;;;;;;;17.71;41.52;99416.16;5073129;28;20481;-79
2022/09/20 00:33:21;;;;;;;2.53;1.60;;;;;;;17.32;41.57;99357.97;5077155;28;20029;-79
2022/09/20 00:35:46;;;;;;;2.00;1.52;;;;;;;17.75;41.66;99449.38;5073469;28;20028;-79
2022/09/20 00:38:13;;;;;;;1.90;1.70;;;;;;;17.86;41.79;99441.66;5072408;28;20025;-78
2022/09/20 00:40:43;;;;;;;1.63;1.20;;;;;;;17.88;42.09;99437.72;5071920;28;20020;-79
2022/09/20 00:43:16;;;;;;;3.88;1.48;;;;;;;17.92;41.93;99427.41;5072761;28;20100;-79
2022/09/20 00:45:45;;;;;;;2.92;1.65;;;;;;;17.18;41.90;99308.50;5072511;28;20024;-79
2022/09/20 00:48:24;;;;;;;2.88;1.40;;;;;;;17.43;41.99;99360.66;5071278;28;20039;-80
2022/09/20 00:51:03;;;;;;;3.45;1.20;;;;;;;17.93;42.04;99421.00;5071520;28;20051;-79
2022/09/20 00:53:35;;;;;;;5.30;1.80;;;;;;;17.75;42.03;99382.63;5072601;28;20071;-78
2022/09/20 00:56:06;;;;;;;2.40;1.40;;;;;;;18.02;41.74;99416.97;5072836;28;20016;-78
2022/09/20 00:58:39;;;;;;;3.22;1.63;;;;;;;17.78;42.12;99374.16;5080026;28;20081;-79
2022/09/20 01:01:05;;;;;;;4.63;1.35;;;;;;;18.02;42.03;99411.63;5076804;28;20429;-78
2022/09/20 01:03:34;;;;;;;3.40;1.90;;;;;;;17.54;41.88;99353.75;5073068;28;20020;-78
2022/09/20 01:06:05;;;;;;;3.28;1.40;;;;;;;17.61;41.79;99354.47;5071315;28;20086;-78
2022/09/20 01:08:33;;;;;;;2.95;1.35;;;;;;;17.85;42.27;99389.28;5072363;28;20026;-79
2022/09/20 01:10:59;;;;;;;2.78;1.30;;;;;;;17.56;41.83;99334.81;5072221;28;20415;-78
2022/09/20 01:13:24;;;;;;;2.30;1.52;;;;;;;17.77;41.82;99353.00;5070810;28;20108;-79
2022/09/20 01:15:51;;;;;;;1.52;1.23;;;;;;;18.07;41.91;99398.38;5072170;28;20097;-79
2022/09/20 01:18:18;;;;;;;3.45;1.50;;;;;;;16.80;41.86;99201.06;5071991;28;20063;-79
2022/09/20 01:20:45;;;;;;;3.75;1.45;;;;;;;17.29;41.98;99287.19;5072000;28;20568;-79
2022/09/20 01:23:30;;;;;;;2.03;1.45;;;;;;;17.90;42.21;99392.09;5070670;28;20027;-79
2022/09/20 01:26:33;;;;;;;2.20;1.20;;;;;;;17.80;42.13;99395.28;5071883;28;20028;-79
2022/09/20 01:29:08;;;;;;;2.50;1.40;;;;;;;17.66;42.75;99397.34;5071966;28;20013;-79
2022/09/20 01:31:44;;;;;;;4.18;1.45;;;;;;;17.05;42.45;99312.94;5070503;28;20097;-79
2022/09/20 01:34:20;;;;;;;4.93;1.50;;;;;;;17.52;42.45;99381.72;5071786;28;20027;-79
2022/09/20 01:36:59;;;;;;;3.65;1.38;;;;;;;17.45;42.68;99387.94;5071980;28;20496;-79
2022/09/20 01:39:49;;;;;;;2.70;1.40;;;;;;;17.51;43.00;99399.56;5071834;28;20099;-79
2022/09/20 01:42:15;;;;;;;1.73;1.30;;;;;;;17.06;42.68;99322.56;5071428;28;20393;-80
2022/09/20 01:44:53;;;;;;;3.85;1.40;;;;;;;17.45;42.93;99397.81;5070639;28;20027;-79
2022/09/20 01:47:44;;;;;;;1.33;1.23;;;;;;;17.10;43.03;99345.13;5072426;28;20520;-79
2022/09/20 01:50:22;;;;;;;2.80;1.30;;;;;;;17.46;43.10;99391.44;5070880;28;20408;-79
2022/09/20 01:53:20;;;;;;;3.47;1.40;;;;;;;17.51;42.95;99391.56;5071394;28;20497;-79
2022/09/20 01:56:08;;;;;;;3.25;1.42;;;;;;;17.46;42.90;99391.44;5071696;28;20028;-79
2022/09/20 01:59:08;;;;;;;2.60;1.17;;;;;;;17.47;43.00;99382.38;5071532;28;20436;-79
2022/09/20 02:02:00;;;;;;;3.28;1.58;;;;;;;17.46;43.13;99389.59;5070146;28;20044;-78
2022/09/20 02:04:31;;;;;;;2.80;1.73;;;;;;;17.47;42.90;99391.22;5071471;28;20024;-78
2022/09/20 02:07:18;;;;;;;1.88;1.25;;;;;;;17.52;43.14;99379.84;5071285;28;20024;-79
2022/09/20 02:10:03;;;;;;;2.60;1.50;;;;;;;17.50;42.95;99373.13;5070207;28;20462;-79
2022/09/20 02:12:37;;;;;;;4.40;1.20;;;;;;;17.46;42.91;99384.25;5070225;28;20413;-79
2022/09/20 02:15:27;;;;;;;1.40;1.30;;;;;;;17.41;43.16;99383.28;5071636;28;20116;-78
2022/09/20 02:17:52;;;;;;;3.13;1.65;;;;;;;17.37;43.15;99380.25;5071354;28;20486;-79
2022/09/20 02:20:50;;;;;;;3.03;1.30;;;;;;;17.41;42.85;99378.78;5071206;28;20111;-79
2022/09/20 02:23:33;;;;;;;1.70;1.10;;;;;;;17.47;42.70;99385.06;5068573;28;20101;-78
2022/09/20 02:26:20;;;;;;;2.13;1.20;;;;;;;17.52;42.74;99382.53;5071276;28;20030;-79
2022/09/20 02:28:59;;;;;;;2.67;1.05;;;;;;;17.53;42.45;99383.34;5071393;28;20025;-79
2022/09/20 02:31:47;;;;;;;2.08;1.20;;;;;;;17.27;42.57;99342.63;5071108;28;20473;-78
2022/09/20 02:34:16;;;;;;;3.30;1.17;;;;;;;17.55;42.36;99390.06;5071152;28;20032;-78
2022/09/20 02:37:12;;;;;;;3.72;1.10;;;;;;;17.52;42.60;99389.72;5071241;28;20041;-79
2022/09/20 02:39:52;;;;;;;2.22;1.42;;;;;;;16.70;42.70;99286.09;5069977;28;20131;-79
2022/09/20 02:42:28;;;;;;;1.20;1.10;;;;;;;16.84;42.90;99334.75;5069844;28;20024;-78
2022/09/20 02:45:00;;;;;;;3.15;1.40;;;;;;;17.36;42.75;99399.16;5071185;28;20413;-79
2022/09/20 02:47:41;;;;;;;3.05;1.10;;;;;;;16.76;42.80;99340.38;5071236;28;20028;-78
2022/09/20 02:50:13;;;;;;;1.65;1.13;;;;;;;17.13;43.15;99397.19;5070842;28;20032;-78
2022/09/20 02:53:16;;;;;;;1.25;1.08;;;;;;;17.07;43.40;99406.88;5069292;28;20036;-79
2022/09/20 02:56:00;;;;;;;3.95;1.25;;;;;;;17.12;43.23;99409.72;5070732;28;20029;-79
2022/09/20 02:58:40;;;;;;;2.08;1.42;;;;;;;17.18;42.87;99416.03;5069498;28;20488;-79
2022/09/20 03:01:11;;;;;;;2.97;1.05;;;;;;;17.23;42.96;99410.00;5071304;28;20460;-78
2022/09/20 03:04:15;;;;;;;1.80;0.93;;;;;;;17.13;43.11;99416.69;5074875;28;20028;-78
2022/09/20 03:07:01;;;;;;;1.20;1.10;;;;;;;16.83;43.19;99402.44;5050173;28;20094;-79
2022/09/20 03:09:45;;;;;;;2.67;1.02;;;;;;;17.12;43.19;99412.41;5074652;28;20043;-79
2022/09/20 03:12:42;;;;;;;2.08;1.00;;;;;;;17.05;43.33;99426.81;5074427;28;20174;-79
2022/09/20 03:15:07;;;;;;;1.73;1.25;;;;;;;17.08;43.12;99413.84;5074382;28;20020;-79
2022/09/20 03:17:41;;;;;;;2.35;1.05;;;;;;;16.95;42.91;99390.00;5073155;28;20111;-79
2022/09/20 03:20:37;;;;;;;1.88;0.75;;;;;;;17.07;43.26;99420.22;5073195;28;20024;-79
2022/09/20 03:23:32;;;;;;;1.27;0.80;;;;;;;16.74;43.21;99377.94;5073344;28;20086;-78
2022/09/20 03:26:35;;;;;;;2.10;1.08;;;;;;;17.11;43.45;99425.97;5073995;28;20034;-79
2022/09/20 03:29:38;;;;;;;1.85;0.93;;;;;;;17.09;43.68;99425.34;5074063;28;20137;-78
2022/09/20 03:32:25;;;;;;;0.98;0.95;;;;;;;16.79;43.51;99388.75;5074068;28;20039;-78
2022/09/20 03:35:13;;;;;;;0.85;0.85;;;;;;;16.73;43.49;99384.28;5074586;28;20029;-79
2022/09/20 03:37:57;;;;;;;2.20;1.10;;;;;;;16.94;43.69;99436.38;5074050;28;20412;-79
2022/09/20 03:40:23;;;;;;;2.25;1.10;;;;;;;16.92;43.57;99433.13;5074042;28;20103;-79
2022/09/20 03:42:51;;;;;;;2.10;1.17;;;;;;;16.19;43.47;99316.53;5074038;28;20485;-79
2022/09/20 03:45:35;;;;;;;5.82;1.27;;;;;;;16.39;43.96;99355.50;5073613;28;20020;-79
2022/09/20 03:48:23;;;;;;;1.67;0.90;;;;;;;16.25;43.72;99370.78;5073627;28;20149;-79
2022/09/20 03:51:07;;;;;;;1.92;1.00;;;;;;;16.72;43.80;99436.00;5073697;28;20029;-79
2022/09/20 03:54:18;;;;;;;2.25;1.02;;;;;;;16.47;44.01;99404.00;5072359;28;20028;-79
2022/09/20 03:57:16;;;;;;;1.20;0.90;;;;;;;16.77;43.55;99443.31;5071928;28;20050;-79
2022/09/20 03:59:58;;;;;;;3.10;1.05;;;;;;;16.73;43.58;99442.13;5077822;28;20497;-78
2022/09/20 04:02:50;;;;;;;4.65;1.13;;;;;;;16.65;43.86;99442.38;5073856;28;20100;-79
2022/09/20 04:05:27;;;;;;;2.30;1.08;;;;;;;16.19;43.61;99396.44;5068504;28;20045;-78
2022/09/20 04:08:16;;;;;;;1.00;0.90;;;;;;;15.77;43.85;99336.78;5074329;28;20032;-79
2022/09/20 04:10:58;;;;;;;4.38;1.35;;;;;;;16.44;43.78;99451.59;5072583;28;20029;-79
2022/09/20 04:13:37;;;;;;;;;;;;;;;16.24;44.40;99451.72;5073013;28;20054;-79
2022/09/20 04:16:30;;;;;;;4.30;1.20;;;;;;;16.47;43.54;99464.50;5072031;28;20439;-78
2022/09/20 04:19:17;;;;;;;2.17;1.10;;;;;;;16.44;43.93;99463.06;5073289;28;20036;-78
2022/09/20 04:21:47;;;;;;;1.38;1.00;;;;;;;16.52;43.75;99469.97;5073634;28;20028;-78
2022/09/20 04:24:16;;;;;;;1.55;1.05;;;;;;;16.59;43.73;99469.91;5077929;28;20039;-79
2022/09/20 04:26:49;;;;;;;3.38;1.17;;;;;;;16.58;43.73;99470.97;5076483;28;20036;-79
2022/09/20 04:29:33;;;;;;;1.17;0.90;;;;;;;16.60;43.39;99466.22;5072361;28;20075;-79
2022/09/20 04:32:24;;;;;;;1.30;1.10;;;;;;;16.56;43.51;99467.69;5073462;28;20111;-79
2022/09/20 04:37:46;;;;;;;2.33;1.20;;;;;;;16.13;43.31;99421.28;5073117;28;20024;-79
2022/09/20 04:40:33;;;;;;;4.00;1.35;;;;;;;16.48;43.65;99477.59;5071604;28;20028;-79
2022/09/20 04:43:26;;;;;;;1.65;1.10;;;;;;;16.47;43.46;99473.31;5072977;28;20024;-78
2022/09/20 04:46:08;;;;;;;2.78;1.10;;;;;;;16.16;43.82;99439.50;5071565;28;20085;-78
2022/09/20 04:49:27;;;;;;;1.42;1.10;;;;;;;16.18;43.65;99436.63;5072884;28;20032;-78
2022/09/20 04:52:24;;;;;;;2.05;1.20;;;;;;;16.14;43.63;99427.44;5030695;28;20127;-79
2022/09/20 04:55:35;;;;;;;2.15;1.70;;;;;;;16.32;43.73;99486.09;5071175;28;20114;-78
2022/09/20 04:58:18;;;;;;;4.32;1.50;;;;;;;16.34;43.94;99493.88;5072464;28;20023;-78
2022/09/20 05:00:59;;;;;;;3.83;1.13;;;;;;;16.35;44.20;99496.34;5071046;28;20103;-79
2022/09/20 05:03:43;;;;;;;3.90;1.80;;;;;;;16.38;43.81;99492.44;5072385;28;20028;-79
2022/09/20 05:06:17;;;;;;;3.20;1.40;;;;;;;16.41;43.98;99503.47;5072583;28;20039;-79
2022/09/20 05:09:01;;;;;;;1.38;1.27;;;;;;;16.48;43.83;99504.25;5072584;28;20029;-79
2022/09/20 05:12:03;;;;;;;1.48;1.13;;;;;;;15.75;43.41;99392.06;5071257;28;20024;-79
2022/09/20 05:14:57;;;;;;;2.20;1.30;;;;;;;16.30;43.66;99504.16;5067086;28;20048;-79
2022/09/20 05:17:24;;;;;;;1.75;1.50;;;;;;;16.35;43.95;99512.34;5070775;28;20489;-78
2022/09/20 05:19:54;;;;;;;1.45;1.35;;;;;;;16.37;43.61;99514.78;5070695;28;20024;-78
2022/09/20 05:22:32;;;;;;;1.80;1.30;;;;;;;16.37;44.07;99517.47;5070741;28;20152;-79
2022/09/20 05:25:24;;;;;;;2.78;1.42;;;;;;;16.41;43.90;99513.31;5071934;28;20169;-79
2022/09/20 05:27:50;;;;;;;1.30;1.20;;;;;;;16.33;43.87;99517.03;5070604;28;20448;-78
2022/09/20 05:30:29;;;;;;;2.75;1.50;;;;;;;15.56;43.92;99404.41;5071865;28;20039;-79
2022/09/20 05:33:12;;;;;;;2.35;1.58;;;;;;;16.13;43.73;99481.72;5071865;28;20029;-79
2022/09/20 05:36:02;;;;;;;1.65;1.20;;;;;;;16.14;43.77;99486.03;5071662;28;20420;-78
2022/09/20 05:39:09;;;;;;;1.50;1.30;;;;;;;16.16;43.75;99487.44;5071949;28;20057;-79
2022/09/20 05:41:44;;;;;;;2.22;1.85;;;;;;;16.49;43.82;99523.72;5062868;28;20051;-78
2022/09/20 05:44:15;;;;;;;3.97;1.65;;;;;;;16.55;43.47;99520.19;5080960;28;20029;-79
2022/09/20 05:47:03;;;;;;;3.45;3.03;;;;;;;16.64;43.99;99534.06;5079402;28;20025;-79
2022/09/20 05:49:45;;;;;;;2.42;1.50;;;;;;;16.73;43.20;99524.78;5088578;28;20066;-79
2022/09/20 05:52:14;;;;;;;;;;;;;;;16.54;43.66;99531.88;5084896;28;20463;-79
2022/09/20 05:54:48;;;;;;;3.08;1.67;;;;;;;16.73;43.57;99527.44;5071610;28;19973;-79
2022/09/20 05:57:19;;;;;;;2.35;1.42;;;;;;;16.69;43.79;99515.59;5071534;28;20020;-79
2022/09/20 05:59:51;;;;;;;2.15;1.65;;;;;;;16.64;43.65;99521.53;5071638;28;20135;-79
2022/09/20 06:02:33;;;;;;;1.40;1.30;;;;;;;16.65;43.70;99519.69;5082549;28;20020;-79
2022/09/20 06:05:02;;;;;;;10.40;7.10;;;;;;;16.71;43.57;99510.84;5080448;28;20049;-79
2022/09/20 06:08:02;;;;;;;5.93;3.55;;;;;;;16.31;43.21;99457.81;5069958;28;20097;-79
2022/09/20 06:10:46;;;;;;;3.90;3.30;;;;;;;16.78;43.05;99514.28;5068733;28;20040;-79
2022/09/20 06:13:36;;;;;;;1.60;1.50;;;;;;;16.81;42.84;99513.84;5069891;28;20032;-79
2022/09/20 06:16:04;;;;;;;2.78;2.55;;;;;;;16.49;42.38;99457.09;5071576;28;20512;-76
2022/09/20 06:18:38;;;;;;;2.38;1.50;;;;;;;16.86;42.66;99508.66;5071995;28;20025;-79
2022/09/20 06:21:30;;;;;;;2.80;2.60;;;;;;;16.30;42.04;99420.75;5071509;28;20032;-79
2022/09/20 06:23:59;;;;;;;3.85;3.30;;;;;;;16.99;41.90;99523.72;5071260;28;20024;-79
2022/09/20 06:26:29;;;;;;;3.00;2.70;;;;;;;17.10;42.10;99526.50;5069822;28;20024;-79
2022/09/20 06:29:01;;;;;;;3.87;2.60;;;;;;;17.14;41.65;99537.56;5071155;28;20039;-79
2022/09/20 06:31:26;;;;;;;5.07;3.22;;;;;;;16.74;41.75;99452.59;5069745;28;20036;-79
2022/09/20 06:33:55;;;;;;;5.25;2.65;;;;;;;17.02;41.42;99518.78;5071350;28;20025;-79
2022/09/20 06:42:17;;;;;;;;;;;;;;;17.25;41.08;99534.16;5093183;28;20507;-79
2022/09/20 06:44:42;;;;;;;2.63;2.35;;;;;;;16.09;40.90;99334.84;5095571;28;19908;-79
2022/09/20 06:47:10;;;;;;;6.00;4.63;;;;;;;17.38;40.74;99538.53;5094228;28;20027;-79
2022/09/20 06:49:35;;;;;;;2.40;1.45;;;;;;;17.21;40.64;99505.47;5093981;28;20032;-78
2022/09/20 06:52:11;;;;;;;5.00;2.30;;;;;;;17.50;39.95;99558.13;5094478;28;20519;-79
2022/09/20 06:54:37;;;;;;;2.75;2.10;;;;;;;17.36;40.12;99544.09;5073911;28;20036;-79
2022/09/20 06:57:05;;;;;;;2.83;1.73;;;;;;;16.90;40.00;99471.72;5073621;28;20039;-78
2022/09/20 06:59:31;;;;;;;2.20;1.45;;;;;;;16.80;39.53;99457.03;5078550;28;20563;-78
2022/09/20 07:01:57;;;;;;;2.63;1.48;;;;;;;17.44;39.60;99548.31;5083838;28;20107;-78
2022/09/20 07:04:23;;;;;;;3.75;2.10;;;;;;;17.13;39.48;99499.41;5084813;28;20032;-78
2022/09/20 07:06:49;;;;;;;1.13;1.02;;;;;;;17.47;39.25;99532.69;5076373;28;20024;-78
2022/09/20 07:09:16;;;;;;;3.72;2.10;;;;;;;17.14;38.90;99473.53;5073080;28;20090;-78
2022/09/20 07:11:41;;;;;;;2.67;2.17;;;;;;;17.49;39.09;99524.44;5092628;28;20062;-78
2022/09/20 07:14:07;;;;;;;4.45;3.42;;;;;;;17.58;38.75;99515.09;5094604;28;20051;-79
2022/09/20 07:16:35;;;;;;;7.93;4.82;;;;;;;17.59;38.70;99482.03;5086911;28;20029;-78
2022/09/20 07:19:00;;;;;;;4.53;3.85;;;;;;;18.03;38.44;99520.13;5072753;28;20107;-78
2022/09/20 07:21:25;;;;;;;3.65;2.47;;;;;;;18.06;37.97;99523.16;5073877;28;20104;-78
2022/09/20 07:23:52;;;;;;;5.63;4.30;;;;;;;18.31;37.68;99573.78;5075933;28;20570;-78
2022/09/20 07:26:25;;;;;;;3.10;1.55;;;;;;;17.85;37.49;99486.25;5071870;28;20479;-79
2022/09/20 07:28:50;;;;;;;5.82;4.38;;;;;;;18.03;37.52;99525.47;5074336;28;20094;-79
2022/09/20 07:31:18;;;;;;;2.03;1.35;;;;;;;18.32;36.93;99575.41;5074163;28;20020;-78
2022/09/20 07:33:43;;;;;;;3.20;2.40;;;;;;;18.20;37.32;99563.03;5077180;28;20480;-77
2022/09/20 07:36:11;;;;;;;2.70;2.20;;;;;;;18.02;37.26;99535.34;5091077;28;20032;-79
2022/09/20 07:38:37;;;;;;;3.33;2.65;;;;;;;18.19;37.25;99550.72;5090527;28;20350;-79
2022/09/20 07:41:02;;;;;;;3.75;2.17;;;;;;;18.42;36.98;99572.19;5074991;28;20481;-79
2022/09/20 07:43:29;;;;;;;3.38;1.85;;;;;;;18.21;36.73;99554.81;5073435;28;20484;-78
2022/09/20 07:45:56;;;;;;;1.83;1.60;;;;;;;18.17;37.07;99563.50;5071707;28;20563;-79
2022/09/20 07:48:24;;;;;;;2.17;1.98;;;;;;;17.47;37.10;99446.44;5086107;28;20024;-78
2022/09/20 07:50:55;;;;;;;3.95;2.53;;;;;;;18.37;36.91;99583.56;5083094;28;20092;-79
2022/09/20 07:53:21;;;;;;;2.17;1.98;;;;;;;17.89;36.89;99514.16;5091088;28;20060;-79
2022/09/20 07:56:00;;;;;;;4.82;3.30;;;;;;;18.04;36.97;99509.22;5089940;28;20113;-79
2022/09/20 07:58:26;;;;;;;3.10;2.47;;;;;;;18.17;36.73;99524.22;5089307;28;20386;-79
2022/09/20 08:01:01;;;;;;;2.75;2.40;;;;;;;18.21;36.59;99538.78;5091066;28;20055;-78
2022/09/20 08:03:29;;;;;;;2.10;1.60;;;;;;;18.63;36.59;99581.59;5089294;28;20032;-78
2022/09/20 08:05:59;;;;;;;2.17;1.40;;;;;;;18.20;36.64;99521.09;5091116;28;20020;-79
2022/09/20 08:08:25;;;;;;;2.38;1.58;;;;;;;18.33;36.38;99531.59;5092803;28;20043;-79
2022/09/20 08:10:50;;;;;;;4.80;2.28;;;;;;;18.28;36.36;99522.63;5083229;28;20104;-79
2022/09/20 08:13:16;;;;;;;6.07;2.05;;;;;;;18.45;36.26;99539.66;5076361;28;20031;-79
2022/09/20 08:15:41;;;;;;;2.45;1.52;;;;;;;18.01;36.06;99507.00;5090936;28;20030;-79
2022/09/20 08:21:34;;;;;;;3.58;3.25;;;;;;;18.41;35.62;99538.47;5081968;28;20047;-79
2022/09/20 08:24:00;;;;;;;4.50;3.92;;;;;;;18.82;35.08;99591.16;5090494;28;20389;-79
2022/09/20 08:26:27;;;;;;;4.25;2.78;;;;;;;18.94;34.57;99578.63;5092483;28;20032;-79
2022/09/20 08:28:55;;;;;;;2.40;1.20;;;;;;;18.71;33.96;99536.59;5092830;28;20502;-78
2022/09/20 08:31:23;;;;;;;4.05;3.05;;;;;;;18.48;33.75;99475.03;5080393;28;20408;-79
2022/09/20 08:33:50;;;;;;;1.40;1.30;;;;;;;18.44;33.98;99447.13;5075383;28;20032;-79
2022/09/20 08:36:21;;;;;;;3.63;2.00;;;;;;;19.17;33.88;99563.59;5075020;28;20028;-78
2022/09/20 08:38:47;;;;;;;2.17;1.97;;;;;;;19.05;33.42;99553.72;5079782;28;20056;-78
2022/09/20 08:41:43;;;;;;;3.40;1.30;;;;;;;19.37;33.26;99561.41;5083390;28;20029;-78
2022/09/20 08:44:26;;;;;;;3.08;2.25;;;;;;;19.21;32.72;99533.47;5072774;28;20106;-79
2022/09/20 08:47:08;;;;;;;2.53;1.00;;;;;;;19.58;32.38;99563.50;5071704;28;20093;-77
2022/09/20 08:49:34;;;;;;;3.45;1.48;;;;;;;19.56;32.48;99567.47;5075233;28;20024;-79
2022/09/20 08:52:02;;;;;;;4.57;4.00;;;;;;;19.22;32.21;99518.22;5071022;28;20044;-78
2022/09/20 08:54:32;;;;;;;2.33;2.08;;;;;;;19.15;32.46;99525.56;5079676;28;20041;-78
2022/09/20 08:57:02;;;;;;;1.58;1.05;;;;;;;19.22;32.21;99534.28;5080958;28;20020;-79
2022/09/20 08:59:28;;;;;;;1.33;1.20;;;;;;;18.64;32.37;99465.56;5080572;28;20035;-78
2022/09/20 09:01:53;;;;;;;4.38;2.65;;;;;;;18.92;32.41;99496.94;5071370;28;20024;-79
2022/09/20 09:04:24;;;;;;;3.90;3.50;;;;;;;18.72;32.62;99463.34;5081724;28;20024;-79
2022/09/20 09:06:51;;;;;;;8.13;5.80;;;;;;;19.29;32.92;99545.69;5088744;28;20023;-78
2022/09/20 09:09:26;;;;;;;5.05;4.13;;;;;;;19.30;32.30;99531.25;5070876;28;20420;-78
2022/09/20 09:11:54;;;;;;;2.80;2.60;;;;;;;19.22;32.51;99550.34;5071610;28;20033;-78
2022/09/20 09:14:47;;;;;;;4.13;2.88;;;;;;;19.21;32.74;99529.97;5087555;28;20032;-79
2022/09/20 09:17:16;;;;;;;3.60;3.00;;;;;;;19.23;32.93;99522.53;5073688;28;20043;-78
2022/09/20 09:19:53;;;;;;;5.13;3.03;;;;;;;18.83;32.72;99460.91;5077913;28;20501;-78
2022/09/20 09:22:22;;;;;;;4.97;3.70;;;;;;;19.00;32.52;99499.28;5073843;28;20028;-79
2022/09/20 09:25:07;;;;;;;5.05;4.10;;;;;;;19.23;32.35;99499.25;5074548;28;20030;-78
2022/09/20 09:27:33;;;;;;;8.02;6.20;;;;;;;19.83;31.95;99522.19;5075630;28;20024;-78
2022/09/20 09:30:00;;;;;;;4.40;2.33;;;;;;;20.33;31.42;99524.22;5083288;28;20020;-78
2022/09/20 09:32:31;;;;;;;3.92;3.05;;;;;;;20.86;30.53;99523.78;5071573;28;20112;-78
2022/09/20 09:35:30;;;;;;;1.50;1.02;;;;;;;21.46;29.96;99528.41;5083835;28;20024;-78
2022/09/20 09:38:00;;;;;;;3.38;1.80;;;;;;;21.66;29.65;99517.94;5089072;28;20106;-79
2022/09/20 09:40:28;;;;;;;2.20;1.65;;;;;;;21.93;29.26;99519.84;5070351;28;20589;-79
2022/09/20 09:42:56;;;;;;;2.25;1.92;;;;;;;22.03;28.71;99528.88;5086256;28;20094;-79
2022/09/20 09:45:26;;;;;;;2.67;1.55;;;;;;;21.82;28.68;99492.84;5071305;28;20108;-79
2022/09/20 09:47:53;;;;;;;3.83;2.25;;;;;;;22.24;28.77;99521.00;5071585;28;20063;-78
2022/09/20 09:50:32;;;;;;;2.60;2.40;;;;;;;22.20;27.84;99469.59;5079908;28;20032;-79
2022/09/20 09:53:14;;;;;;;2.00;1.50;;;;;;;22.32;27.38;99493.66;5084510;28;20028;-79
2022/09/20 09:55:51;;;;;;;;;;;;;;;22.31;28.10;99518.94;5090644;28;20093;-78
2022/09/20 09:58:25;;;;;;;3.78;3.45;;;;;;;22.29;27.78;99521.84;5091424;28;20400;-79
2022/09/20 10:00:52;;;;;;;3.95;1.40;;;;;;;22.24;27.62;99492.22;5078008;28;20044;-78
2022/09/20 10:03:45;;;;;;;5.45;3.47;;;;;;;21.89;26.53;99398.56;5086907;28;20020;-78
2022/09/20 10:06:38;;;;;;;3.20;2.75;;;;;;;22.47;27.07;99459.63;5077456;28;20027;-77
2022/09/20 10:09:41;;;;;;;3.60;1.20;;;;;;;23.26;26.36;99509.16;5075289;28;20028;-78
2022/09/20 10:12:09;;;;;;;5.15;2.70;;;;;;;23.54;26.67;99508.75;5072724;28;20032;-78
2022/09/20 10:15:06;;;;;;;5.45;1.73;;;;;;;23.84;26.17;99494.63;5074311;28;20028;-78
2022/09/20 10:17:44;;;;;;;3.13;1.83;;;;;;;23.84;25.74;99450.66;5080105;28;20492;-78
2022/09/20 10:20:27;;;;;;;1.98;1.10;;;;;;;24.22;24.99;99503.31;5083096;28;20036;-79
2022/09/20 10:23:13;;;;;;;2.80;1.35;;;;;;;23.62;25.21;99395.06;5078009;28;20052;-78
2022/09/20 10:25:59;;;;;;;3.30;1.40;;;;;;;23.64;25.65;99367.84;5074367;28;20102;-78
2022/09/20 10:28:47;;;;;;;3.28;1.45;;;;;;;24.62;25.06;99489.06;5073615;28;20025;-79
2022/09/20 10:31:34;;;;;;;1.60;1.50;;;;;;;24.78;25.21;99490.69;5068501;28;20082;-78
2022/09/20 10:34:35;;;;;;;7.93;5.88;;;;;;;24.81;24.48;99463.13;5081931;28;20351;-79
2022/09/20 10:37:01;;;;;;;6.53;2.63;;;;;;;24.11;25.00;99334.44;5079685;28;20036;-78
2022/09/20 10:39:38;;;;;;;4.70;3.40;;;;;;;25.10;23.72;99457.13;5078736;28;20025;-79
2022/09/20 10:45:30;;;;;;;3.28;2.10;;;;;;;25.07;24.25;99379.34;5077014;28;20043;-78
2022/09/20 10:48:07;;;;;;;1.77;1.13;;;;;;;25.33;23.48;99408.69;5087803;28;20462;-78
2022/09/20 10:50:51;;;;;;;3.13;1.20;;;;;;;25.65;23.75;99431.75;5091479;28;20028;-78
2022/09/20 10:53:26;;;;;;;3.33;1.02;;;;;;;25.78;23.63;99452.00;5088643;28;20021;-78
2022/09/20 10:56:07;;;;;;;2.00;1.00;;;;;;;25.68;23.71;99455.56;5085647;28;20063;-78
2022/09/20 10:59:00;;;;;;;3.80;1.98;;;;;;;25.98;23.24;99443.75;5078728;28;20518;-78
2022/09/20 11:01:57;;;;;;;2.38;1.48;;;;;;;26.04;22.94;99439.13;5074894;28;20048;-77
2022/09/20 11:05:00;;;;;;;3.38;2.08;;;;;;;26.18;23.07;99446.34;5088536;28;20103;-77
2022/09/20 11:07:39;;;;;;;1.67;1.58;;;;;;;25.94;22.37;99397.50;5090494;28;20028;-78
2022/09/20 11:10:16;;;;;;;2.33;1.45;;;;;;;25.66;23.15;99352.28;5081806;28;20048;-78
2022/09/20 11:13:07;;;;;;;2.60;1.77;;;;;;;25.60;23.29;99323.66;5073046;28;20627;-78
2022/09/20 11:15:42;;;;;;;1.58;1.48;;;;;;;26.00;23.37;99365.81;5070246;28;20028;-78
2022/09/20 11:18:28;;;;;;;2.83;0.82;;;;;;;26.62;22.67;99428.38;5070240;28;20103;-77
2022/09/20 11:21:07;;;;;;;4.05;1.67;;;;;;;26.23;22.82;99378.63;5069097;28;20020;-77
2022/09/20 11:23:55;;;;;;;1.60;1.25;;;;;;;26.60;22.69;99437.59;5084212;28;20056;-78
2022/09/20 11:26:37;;;;;;;0.70;0.50;;;;;;;26.33;21.00;99395.91;5089404;28;20485;-79
2022/09/20 11:29:20;;;;;;;1.67;0.80;;;;;;;25.98;21.57;99354.47;5073798;28;20056;-78
2022/09/20 11:31:49;;;;;;;1.10;0.90;;;;;;;26.52;21.81;99426.56;5073640;28;20042;-78
2022/09/20 11:34:30;;;;;;;2.67;1.50;;;;;;;26.51;20.22;99422.25;5073607;28;20021;-78
2022/09/20 11:37:02;;;;;;;1.70;1.48;;;;;;;26.37;21.03;99392.34;5072726;28;20025;-78
2022/09/20 11:39:46;;;;;;;;;;;;;;;26.72;20.92;99402.00;5077633;28;20036;-78
2022/09/20 11:42:27;;;;;;;2.53;2.28;;;;;;;26.82;20.71;99388.38;5073850;28;19908;-78
2022/09/20 11:44:53;;;;;;;2.90;1.60;;;;;;;26.52;20.83;99340.72;5073879;28;20028;-78
2022/09/20 11:47:38;;;;;;;0.77;0.55;;;;;;;26.16;20.84;99301.56;5075814;28;20024;-78
2022/09/20 11:50:04;;;;;;;1.45;0.70;;;;;;;26.75;21.25;99412.25;5083418;28;20138;-76
2022/09/20 11:53:00;;;;;;;0.73;0.68;;;;;;;26.52;21.27;99397.59;5092492;28;20472;-76
2022/09/20 11:55:47;;;;;;;1.58;0.60;;;;;;;26.21;21.11;99382.72;5092873;28;20106;-77
2022/09/20 11:58:15;;;;;;;0.85;0.60;;;;;;;26.06;21.54;99391.78;5090492;28;20088;-79
2022/09/20 12:00:47;;;;;;;2.13;0.80;;;;;;;25.61;21.30;99350.41;5090670;28;20048;-79
2022/09/20 12:03:24;;;;;;;;;;;;;;;25.78;21.57;99390.59;5075973;28;20016;-77
2022/09/20 12:06:01;;;;;;;2.08;1.80;;;;;;;25.46;21.67;99358.63;5092281;28;20047;-78
2022/09/20 12:08:35;;;;;;;1.08;0.90;;;;;;;25.51;21.63;99376.69;5080860;28;20103;-78
2022/09/20 12:11:11;;;;;;;0.70;0.70;;;;;;;25.52;22.21;99386.44;5077212;28;20074;-78
2022/09/20 12:13:39;;;;;;;2.05;0.70;;;;;;;25.33;21.66;99376.25;5075855;28;20396;-78
2022/09/20 12:16:16;;;;;;;1.63;0.70;;;;;;;25.28;21.34;99379.00;5077916;28;20082;-78
2022/09/20 12:18:53;;;;;;;1.00;0.40;;;;;;;25.14;20.93;99371.75;5074421;28;20078;-78
2022/09/20 12:21:20;;;;;;;0.70;0.57;;;;;;;24.90;21.90;99347.25;5093098;28;20082;-77
2022/09/20 12:24:00;;;;;;;0.77;0.60;;;;;;;24.77;21.62;99350.53;5092930;28;20073;-77
2022/09/20 12:26:25;;;;;;;2.40;0.70;;;;;;;24.90;22.10;99366.97;5092119;28;20573;-78
2022/09/20 12:29:24;;;;;;;1.58;0.50;;;;;;;24.32;21.95;99317.16;5091189;28;20024;-78
2022/09/20 12:31:51;;;;;;;3.83;1.00;;;;;;;24.43;22.42;99345.75;5093149;28;20492;-79
2022/09/20 12:34:17;;;;;;;1.13;0.85;;;;;;;24.53;22.42;99367.34;5074718;28;20033;-78
2022/09/20 12:36:54;;;;;;;0.75;0.70;;;;;;;24.60;22.81;99373.25;5072254;28;20032;-77